Time;durP1;ratioP1;P1;durP2;ratioP2;P2;SDS_P1;SDS_P2;PMS_P1;PMS_P2;Temp;Humidity;BMP_temperature;BMP_pressure;BME280_temperature;BME280_humidity;BME280_pressure;Samples;Min_cycle;Max_cycle;Signal;HPM_P1;HPM_P2
2023/04/05 00:01:27;;;;;;;7.82;5.15;;;;;;;;;;5083019;28;20040;-75
2023/04/05 00:03:53;;;;;;;10.23;5.53;;;;;;;;;;5087570;28;20059;-75
2023/04/05 00:06:25;;;;;;;8.65;4.70;;;;;;;;;;5075995;28;20052;-76
2023/04/05 00:08:54;;;;;;;8.57;5.43;;;;;;;;;;5089594;28;20436;-76
2023/04/05 00:11:20;;;;;;;7.95;4.53;;;;;;;;;;5086048;28;20048;-75
2023/04/05 00:13:46;;;;;;;9.20;4.65;;;;;;;;;;5088189;28;20075;-75
2023/04/05 00:16:12;;;;;;;9.75;4.32;;;;;;;;;;5095436;28;20078;-75
2023/04/05 00:18:38;;;;;;;6.90;4.80;;;;;;;;;;5085477;28;20051;-75
2023/04/05 00:21:05;;;;;;;10.65;5.43;;;;;;;;;;5075040;28;20041;-75
2023/04/05 00:23:37;;;;;;;7.60;4.65;;;;;;;;;;5076852;28;20051;-75
2023/04/05 00:26:03;;;;;;;10.38;4.75;;;;;;;;;;5087797;28;20039;-75
2023/04/05 00:28:29;;;;;;;10.02;5.28;;;;;;;;;;5079706;28;20478;-75
2023/04/05 00:30:55;;;;;;;9.70;5.38;;;;;;;;;;5065380;28;20048;-75
2023/04/05 00:33:21;;;;;;;8.18;4.90;;;;;;;;;;5090527;28;20043;-75
2023/04/05 00:35:47;;;;;;;10.02;4.80;;;;;;;;;;5080658;28;20032;-75
2023/04/05 00:38:13;;;;;;;9.48;4.78;;;;;;;;;;5082903;28;20382;-75
2023/04/05 00:40:39;;;;;;;5.80;4.63;;;;;;;;;;5087958;28;20486;-75
2023/04/05 00:43:05;;;;;;;9.35;4.82;;;;;;;;;;5085848;28;20044;-75
2023/04/05 00:45:31;;;;;;;8.57;4.45;;;;;;;;;;5087658;28;20504;-75
2023/04/05 00:47:57;;;;;;;6.28;4.68;;;;;;;;;;5093532;28;20040;-75
2023/04/05 00:50:24;;;;;;;7.85;4.47;;;;;;;;;;5088853;28;20137;-76
2023/04/05 00:52:50;;;;;;;7.70;4.80;;;;;;;;;;5092575;28;20483;-76
2023/04/05 00:55:16;;;;;;;6.45;4.07;;;;;;;;;;5082072;28;20040;-76
2023/04/05 00:57:44;;;;;;;6.65;4.40;;;;;;;;;;5075022;28;20132;-76
2023/04/05 01:00:10;;;;;;;6.90;4.57;;;;;;;;;;5092665;28;20398;-76
2023/04/05 01:02:50;;;;;;;6.43;4.78;;;;;;;;;;5077645;28;20047;-75
2023/04/05 01:05:35;;;;;;;8.60;5.13;;;;;;;;;;5076302;28;20524;-75
2023/04/05 01:08:01;;;;;;;8.32;4.82;;;;;;;;;;5087003;28;20048;-75
2023/04/05 01:10:33;;;;;;;6.88;4.88;;;;;;;;;;5087626;28;20474;-75
2023/04/05 01:12:59;;;;;;;7.30;4.03;;;;;;;;;;5079333;28;20039;-75
2023/04/05 01:15:25;;;;;;;5.70;4.50;;;;;;;;;;5092766;28;20419;-75
2023/04/05 01:17:53;;;;;;;7.80;4.13;;;;;;;;;;5076333;28;20055;-75
2023/04/05 01:20:21;;;;;;;7.70;4.32;;;;;;;;;;5078201;28;20045;-75
2023/04/05 01:23:05;;;;;;;5.60;3.90;;;;;;;;;;5087787;28;20098;-75
2023/04/05 01:25:50;;;;;;;6.72;3.97;;;;;;;;;;5077217;28;20048;-75
2023/04/05 01:28:23;;;;;;;6.55;3.80;;;;;;;;;;5073829;28;20059;-75
2023/04/05 01:30:52;;;;;;;4.78;3.60;;;;;;;;;;5083790;28;20048;-75
2023/04/05 01:33:21;;;;;;;5.32;3.60;;;;;;;;;;5088308;28;20068;-75
2023/04/05 01:35:51;;;;;;;6.25;4.20;;;;;;;;;;5085773;28;20048;-75
2023/04/05 01:38:18;;;;;;;6.75;4.28;;;;;;;;;;5072247;28;20044;-73
2023/04/05 01:40:45;;;;;;;7.88;4.65;;;;;;;;;;5077369;28;20032;-76
2023/04/05 01:43:14;;;;;;;7.53;4.45;;;;;;;;;;5079356;28;20036;-76
2023/04/05 01:45:44;;;;;;;7.70;4.32;;;;;;;;;;5089502;28;20036;-73
2023/04/05 01:48:11;;;;;;;8.15;4.93;;;;;;;;;;5076468;28;20040;-74
2023/04/05 01:50:37;;;;;;;7.47;4.80;;;;;;;;;;5091322;28;20128;-74
2023/04/05 01:53:03;;;;;;;9.68;4.80;;;;;;;;;;5077028;28;20060;-74
2023/04/05 01:55:29;;;;;;;8.15;5.18;;;;;;;;;;5081345;28;20389;-74
2023/04/05 01:57:58;;;;;;;7.18;4.40;;;;;;;;;;5085755;28;20138;-74
2023/04/05 02:00:24;;;;;;;7.10;4.80;;;;;;;;;;5087776;28;20047;-74
2023/04/05 02:02:50;;;;;;;7.72;5.03;;;;;;;;;;5092083;28;20046;-74
2023/04/05 02:05:16;;;;;;;7.05;4.75;;;;;;;;;;5088569;28;20101;-74
2023/04/05 02:07:42;;;;;;;7.88;5.22;;;;;;;;;;5093617;28;20097;-74
2023/04/05 02:10:08;;;;;;;7.38;4.93;;;;;;;;;;5093235;28;20044;-75
2023/04/05 02:12:35;;;;;;;7.05;4.68;;;;;;;;;;5093833;28;20055;-74
2023/04/05 02:15:01;;;;;;;6.63;4.30;;;;;;;;;;5093244;28;20048;-74
2023/04/05 02:17:32;;;;;;;7.72;4.32;;;;;;;;;;5092880;28;20064;-74
2023/04/05 02:20:01;;;;;;;8.13;5.15;;;;;;;;;;5078711;28;20040;-74
2023/04/05 02:22:28;;;;;;;8.65;5.07;;;;;;;;;;5073249;28;20054;-74
2023/04/05 02:24:54;;;;;;;6.85;4.95;;;;;;;;;;5073393;28;20040;-74
2023/04/05 02:27:20;;;;;;;8.05;5.15;;;;;;;;;;5073694;28;20359;-74
2023/04/05 02:29:46;;;;;;;7.03;4.90;;;;;;;;;;5074074;28;20045;-74
2023/04/05 02:32:12;;;;;;;8.20;5.07;;;;;;;;;;5077235;28;20040;-74
2023/04/05 02:34:40;;;;;;;8.93;4.82;;;;;;;;;;5074602;28;20039;-74
2023/04/05 02:37:06;;;;;;;7.72;4.63;;;;;;;;;;5077728;28;20045;-74
2023/04/05 02:39:32;;;;;;;8.23;4.97;;;;;;;;;;5092508;28;20036;-74
2023/04/05 02:41:58;;;;;;;6.35;4.55;;;;;;;;;;5076721;28;20052;-74
2023/04/05 02:44:24;;;;;;;6.78;4.72;;;;;;;;;;5086973;28;20044;-74
2023/04/05 02:46:51;;;;;;;6.72;4.90;;;;;;;;;;5087697;28;20037;-74
2023/04/05 02:49:17;;;;;;;7.18;4.25;;;;;;;;;;5081105;28;20052;-74
2023/04/05 02:51:43;;;;;;;7.13;5.00;;;;;;;;;;5090185;28;20052;-74
2023/04/05 02:54:09;;;;;;;6.57;4.70;;;;;;;;;;5092649;28;20037;-74
2023/04/05 02:56:35;;;;;;;7.85;4.85;;;;;;;;;;5083512;28;20044;-74
2023/04/05 02:59:03;;;;;;;9.48;5.50;;;;;;;;;;5082597;28;20063;-74
2023/04/05 03:01:31;;;;;;;8.35;4.80;;;;;;;;;;5078369;28;20550;-74
2023/04/05 03:03:57;;;;;;;7.75;5.10;;;;;;;;;;5081833;28;20470;-74
2023/04/05 03:06:23;;;;;;;7.40;4.85;;;;;;;;;;5095579;28;20044;-74
2023/04/05 03:08:49;;;;;;;9.23;5.10;;;;;;;;;;5096981;28;20036;-74
2023/04/05 03:11:15;;;;;;;7.25;4.93;;;;;;;;;;5085544;28;20042;-74
2023/04/05 03:13:41;;;;;;;6.78;4.75;;;;;;;;;;5087280;28;20115;-74
2023/04/05 03:16:07;;;;;;;6.35;4.78;;;;;;;;;;5083288;28;20083;-74
2023/04/05 03:18:33;;;;;;;7.25;4.72;;;;;;;;;;5080513;28;20051;-74
2023/04/05 03:20:59;;;;;;;9.00;5.57;;;;;;;;;;5076956;28;20033;-74
2023/04/05 03:23:27;;;;;;;6.03;4.88;;;;;;;;;;5076485;28;20041;-74
2023/04/05 03:26:03;;;;;;;10.90;5.13;;;;;;;;;;5087285;28;20080;-74
2023/04/05 03:28:31;;;;;;;12.20;5.93;;;;;;;;;;5077700;28;20040;-75
2023/04/05 03:30:57;;;;;;;9.40;5.63;;;;;;;;;;5080926;28;20121;-74
2023/04/05 03:33:23;;;;;;;6.88;5.22;;;;;;;;;;5083631;28;20040;-74
2023/04/05 03:35:49;;;;;;;9.55;5.97;;;;;;;;;;5079958;28;20072;-74
2023/04/05 03:38:16;;;;;;;7.28;4.90;;;;;;;;;;5064065;28;20051;-74
2023/04/05 03:40:42;;;;;;;10.15;5.65;;;;;;;;;;5084412;28;20123;-74
2023/04/05 03:43:08;;;;;;;8.23;5.20;;;;;;;;;;5084284;28;20041;-74
2023/04/05 03:45:34;;;;;;;9.75;5.43;;;;;;;;;;5075799;28;20052;-73
2023/04/05 03:48:01;;;;;;;8.25;5.68;;;;;;;;;;5078166;28;20048;-74
2023/04/05 03:50:28;;;;;;;8.30;5.68;;;;;;;;;;5092201;28;20044;-74
2023/04/05 03:52:54;;;;;;;8.88;5.68;;;;;;;;;;5087472;28;20047;-74
2023/04/05 03:55:20;;;;;;;9.65;5.45;;;;;;;;;;5075768;28;20074;-74
2023/04/05 03:57:46;;;;;;;10.55;6.07;;;;;;;;;;5078049;28;20067;-74
2023/04/05 04:00:13;;;;;;;6.90;5.40;;;;;;;;;;5089053;28;20410;-74
2023/04/05 04:02:43;;;;;;;8.73;5.78;;;;;;;;;;5094358;28;20044;-74
2023/04/05 04:05:10;;;;;;;10.07;6.63;;;;;;;;;;5095655;28;20044;-74
2023/04/05 04:07:36;;;;;;;10.45;6.97;;;;;;;;;;5095502;28;20040;-74
2023/04/05 04:10:03;;;;;;;10.80;6.75;;;;;;;;;;5095462;28;20444;-74
2023/04/05 04:12:29;;;;;;;9.95;7.05;;;;;;;;;;5095958;28;20085;-74
2023/04/05 04:14:55;;;;;;;14.88;6.50;;;;;;;;;;5086049;28;20124;-74
2023/04/05 04:17:27;;;;;;;9.73;6.63;;;;;;;;;;5089098;28;20060;-75
2023/04/05 04:19:53;;;;;;;9.35;6.20;;;;;;;;;;5086134;28;20052;-75
2023/04/05 04:22:19;;;;;;;11.60;6.50;;;;;;;;;;5075139;28;20109;-75
2023/04/05 04:24:48;;;;;;;12.57;7.72;;;;;;;;;;5079559;28;20036;-75
2023/04/05 04:27:15;;;;;;;10.80;7.07;;;;;;;;;;5081349;28;20119;-75
2023/04/05 04:29:48;;;;;;;12.93;7.10;;;;;;;;;;5075025;28;20127;-75
2023/04/05 04:32:15;;;;;;;12.95;7.30;;;;;;;;;;5074741;28;20052;-75
2023/04/05 04:34:43;;;;;;;12.57;7.45;;;;;;;;;;5076181;28;20123;-75
2023/04/05 04:37:21;;;;;;;11.70;7.05;;;;;;;;;;5074739;28;20045;-75
2023/04/05 04:39:48;;;;;;;12.90;7.32;;;;;;;;;;5084328;28;20051;-75
2023/04/05 04:42:18;;;;;;;12.00;7.30;;;;;;;;;;5076658;28;20072;-75
2023/04/05 04:44:47;;;;;;;12.30;7.65;;;;;;;;;;5075209;28;20048;-75
2023/04/05 04:47:16;;;;;;;12.02;7.65;;;;;;;;;;5086525;28;20043;-75
2023/04/05 04:49:42;;;;;;;12.85;7.63;;;;;;;;;;5085855;28;20051;-75
2023/04/05 04:52:08;;;;;;;12.38;7.53;;;;;;;;;;5090532;28;20066;-75
2023/04/05 04:54:35;;;;;;;12.48;7.68;;;;;;;;;;5074407;28;20083;-75
2023/04/05 04:57:02;;;;;;;13.23;8.48;;;;;;;;;;5084741;28;20047;-75
2023/04/05 04:59:28;;;;;;;12.68;8.05;;;;;;;;;;5093855;28;20050;-75
2023/04/05 05:01:54;;;;;;;13.50;8.60;;;;;;;;;;5086757;28;20090;-75
2023/04/05 05:04:21;;;;;;;13.98;8.38;;;;;;;;;;5084489;28;20044;-75
2023/04/05 05:06:50;;;;;;;16.58;8.80;;;;;;;;;;5080403;28;20123;-74
2023/04/05 05:09:16;;;;;;;17.75;8.80;;;;;;;;;;5076489;28;20036;-75
2023/04/05 05:11:42;;;;;;;16.85;9.10;;;;;;;;;;5092260;28;20050;-75
2023/04/05 05:14:08;;;;;;;14.15;8.90;;;;;;;;;;5094365;28;20124;-75
2023/04/05 05:16:34;;;;;;;14.60;8.48;;;;;;;;;;5081619;28;20470;-75
2023/04/05 05:19:00;;;;;;;13.82;8.35;;;;;;;;;;5074147;28;20067;-75
2023/04/05 05:21:27;;;;;;;18.00;9.57;;;;;;;;;;5081253;28;20044;-75
2023/04/05 05:23:53;;;;;;;13.80;8.55;;;;;;;;;;5087128;28;20048;-75
2023/04/05 05:26:20;;;;;;;14.80;9.75;;;;;;;;;;5077868;28;20055;-75
2023/04/05 05:28:48;;;;;;;15.75;9.70;;;;;;;;;;5073566;28;20092;-75
2023/04/05 05:31:16;;;;;;;15.27;10.18;;;;;;;;;;5082296;28;20048;-75
2023/04/05 05:33:44;;;;;;;13.75;8.55;;;;;;;;;;5081161;28;20088;-75
2023/04/05 05:36:10;;;;;;;17.45;9.13;;;;;;;;;;5088387;28;20062;-75
2023/04/05 05:38:36;;;;;;;16.60;8.90;;;;;;;;;;5093918;28;20515;-75
2023/04/05 05:41:02;;;;;;;14.40;9.05;;;;;;;;;;5085207;28;20041;-75
2023/04/05 05:43:28;;;;;;;14.20;8.55;;;;;;;;;;5073944;28;20384;-74
2023/04/05 05:45:55;;;;;;;17.00;8.93;;;;;;;;;;5084205;28;20044;-74
2023/04/05 05:48:21;;;;;;;15.52;8.65;;;;;;;;;;5082710;28;20130;-74
2023/04/05 05:50:48;;;;;;;15.32;9.55;;;;;;;;;;5092858;28;20048;-74
2023/04/05 05:53:14;;;;;;;15.43;9.07;;;;;;;;;;5093701;28;20051;-75
2023/04/05 05:55:41;;;;;;;14.38;9.20;;;;;;;;;;5091787;28;20047;-74
2023/04/05 05:58:07;;;;;;;14.40;9.32;;;;;;;;;;5072418;28;20045;-75
2023/04/05 06:00:33;;;;;;;22.58;10.18;;;;;;;;;;5083441;28;20115;-74
2023/04/05 06:03:00;;;;;;;29.80;10.45;;;;;;;;;;5094136;28;20424;-74
2023/04/05 06:05:26;;;;;;;19.38;10.73;;;;;;;;;;5092461;28;20486;-74
2023/04/05 06:07:52;;;;;;;19.70;11.70;;;;;;;;;;5074062;28;20335;-74
2023/04/05 06:10:19;;;;;;;18.88;11.35;;;;;;;;;;5091746;28;20416;-74
2023/04/05 06:12:45;;;;;;;20.30;11.30;;;;;;;;;;5078158;28;20123;-75
2023/04/05 06:15:11;;;;;;;18.23;10.48;;;;;;;;;;5091977;28;20048;-75
2023/04/05 06:17:41;;;;;;;13.70;9.05;;;;;;;;;;5098486;28;20048;-75
2023/04/05 06:20:08;;;;;;;16.35;9.43;;;;;;;;;;5097942;28;20047;-75
2023/04/05 06:22:35;;;;;;;14.35;8.95;;;;;;;;;;5080460;28;20044;-75
2023/04/05 06:25:01;;;;;;;14.40;8.40;;;;;;;;;;5090449;28;20048;-74
2023/04/05 06:27:27;;;;;;;16.60;8.82;;;;;;;;;;5097238;28;20044;-75
2023/04/05 06:29:54;;;;;;;17.08;10.27;;;;;;;;;;5090593;28;20562;-75
2023/04/05 06:32:20;;;;;;;18.83;9.95;;;;;;;;;;5088323;28;20044;-74
2023/04/05 06:34:47;;;;;;;15.55;9.90;;;;;;;;;;5084131;28;20378;-74
2023/04/05 06:37:14;;;;;;;17.52;10.88;;;;;;;;;;5083981;28;20084;-74
2023/04/05 06:39:40;;;;;;;18.73;10.88;;;;;;;;;;5084839;28;20113;-74
2023/04/05 06:42:06;;;;;;;18.27;10.85;;;;;;;;;;5076654;28;20375;-74
2023/04/05 06:44:32;;;;;;;19.35;10.95;;;;;;;;;;5076751;28;20105;-74
2023/04/05 06:46:58;;;;;;;17.52;11.25;;;;;;;;;;5088216;28;20088;-74
2023/04/05 06:49:24;;;;;;;16.90;11.30;;;;;;;;;;5091222;28;20048;-74
2023/04/05 06:51:50;;;;;;;16.67;11.00;;;;;;;;;;5085009;28;20037;-75
2023/04/05 06:54:16;;;;;;;17.35;10.80;;;;;;;;;;5076825;28;20475;-74
2023/04/05 06:56:42;;;;;;;17.98;11.50;;;;;;;;;;5076094;28;20037;-75
2023/04/05 06:59:09;;;;;;;18.58;11.20;;;;;;;;;;5079006;28;20044;-75
2023/04/05 07:01:35;;;;;;;17.77;11.40;;;;;;;;;;5080704;28;20037;-74
2023/04/05 07:04:01;;;;;;;16.38;10.48;;;;;;;;;;5085325;28;20046;-73
2023/04/05 07:06:27;;;;;;;19.73;13.20;;;;;;;;;;5086483;28;20421;-73
2023/04/05 07:08:53;;;;;;;16.70;11.57;;;;;;;;;;5089828;28;20778;-73
2023/04/05 07:11:20;;;;;;;17.55;11.43;;;;;;;;;;5079265;28;20040;-73
2023/04/05 07:13:46;;;;;;;18.40;10.93;;;;;;;;;;5080673;28;20044;-74
2023/04/05 07:16:12;;;;;;;17.20;11.52;;;;;;;;;;5082715;28;20059;-78
2023/04/05 07:18:38;;;;;;;17.85;12.00;;;;;;;;;;5090344;28;20111;-74
2023/04/05 07:21:04;;;;;;;18.13;11.43;;;;;;;;;;5077266;28;20119;-75
2023/04/05 07:23:30;;;;;;;16.77;11.27;;;;;;;;;;5080250;28;20062;-74
2023/04/05 07:26:03;;;;;;;16.20;10.85;;;;;;;;;;5086185;28;20124;-74
2023/04/05 07:28:30;;;;;;;15.35;10.63;;;;;;;;;;5079972;28;20044;-75
2023/04/05 07:30:56;;;;;;;18.92;11.25;;;;;;;;;;5081952;28;20040;-75
2023/04/05 07:33:22;;;;;;;18.40;11.60;;;;;;;;;;5082103;28;20048;-75
2023/04/05 07:35:52;;;;;;;14.10;10.13;;;;;;;;;;5078033;28;20032;-75
2023/04/05 07:38:18;;;;;;;15.00;10.73;;;;;;;;;;5078460;28;20157;-74
2023/04/05 07:40:45;;;;;;;15.60;10.90;;;;;;;;;;5077928;28;20069;-75
2023/04/05 07:43:11;;;;;;;17.55;11.25;;;;;;;;;;5093138;28;20115;-74
2023/04/05 07:45:37;;;;;;;17.80;12.50;;;;;;;;;;5093542;28;20074;-77
2023/04/05 07:48:03;;;;;;;17.50;11.35;;;;;;;;;;5080526;28;20051;-76
2023/04/05 07:50:29;;;;;;;15.57;10.88;;;;;;;;;;5098643;28;20051;-75
2023/04/05 07:52:55;;;;;;;17.13;12.18;;;;;;;;;;5079260;28;20478;-75
2023/04/05 07:55:21;;;;;;;17.88;11.48;;;;;;;;;;5075035;28;20047;-74
2023/04/05 07:57:47;;;;;;;15.15;10.65;;;;;;;;;;5077876;28;20040;-74
2023/04/05 08:00:14;;;;;;;15.32;10.55;;;;;;;;;;5089381;28;20489;-75
2023/04/05 08:02:40;;;;;;;14.52;10.57;;;;;;;;;;5096136;28;20108;-75
2023/04/05 08:05:06;;;;;;;16.13;10.88;;;;;;;;;;5095433;28;20040;-75
2023/04/05 08:07:32;;;;;;;17.02;11.35;;;;;;;;;;5091617;28;20051;-75
2023/04/05 08:09:59;;;;;;;17.17;11.80;;;;;;;;;;5095422;28;20048;-74
2023/04/05 08:12:25;;;;;;;15.38;10.93;;;;;;;;;;5094147;28;20051;-76
2023/04/05 08:14:51;;;;;;;15.15;10.70;;;;;;;;;;5091376;28;20490;-75
2023/04/05 08:17:19;;;;;;;19.13;10.73;;;;;;;;;;5092250;28;20048;-75
2023/04/05 08:19:45;;;;;;;14.68;10.40;;;;;;;;;;5092127;28;20123;-75
2023/04/05 08:22:11;;;;;;;14.25;10.73;;;;;;;;;;5093421;28;20052;-75
2023/04/05 08:24:37;;;;;;;16.00;10.60;;;;;;;;;;5092161;28;20067;-75
2023/04/05 08:27:03;;;;;;;14.43;10.10;;;;;;;;;;5089265;28;20347;-74
2023/04/05 08:29:29;;;;;;;15.00;9.75;;;;;;;;;;5092996;28;20363;-75
2023/04/05 08:31:57;;;;;;;14.35;10.15;;;;;;;;;;5083890;28;20486;-75
2023/04/05 08:34:23;;;;;;;14.88;9.85;;;;;;;;;;5079133;28;20048;-75
2023/04/05 08:36:49;;;;;;;16.58;8.93;;;;;;;;;;5076809;28;20460;-75
2023/04/05 08:39:15;;;;;;;14.20;9.52;;;;;;;;;;5084497;28;20470;-75
2023/04/05 08:41:46;;;;;;;16.98;10.07;;;;;;;;;;5087222;28;20058;-76
2023/04/05 08:44:13;;;;;;;10.85;8.25;;;;;;;;;;5079520;28;20048;-76
2023/04/05 08:46:39;;;;;;;11.20;8.07;;;;;;;;;;5075007;28;20036;-76
2023/04/05 08:49:06;;;;;;;11.35;7.80;;;;;;;;;;5074604;28;20460;-76
2023/04/05 08:51:32;;;;;;;8.60;6.57;;;;;;;;;;5088293;28;20056;-76
2023/04/05 08:54:00;;;;;;;10.63;6.93;;;;;;;;;;5081040;28;20036;-76
2023/04/05 08:56:31;;;;;;;9.40;5.57;;;;;;;;;;5076918;28;20048;-75
2023/04/05 08:59:06;;;;;;;7.40;5.50;;;;;;;;;;5084899;28;20043;-75
2023/04/05 09:01:33;;;;;;;9.15;6.57;;;;;;;;;;5083809;28;20052;-75
2023/04/05 09:04:01;;;;;;;9.85;6.25;;;;;;;;;;5075244;28;20055;-76
2023/04/05 09:06:28;;;;;;;8.07;5.57;;;;;;;;;;5094721;28;20090;-76
2023/04/05 09:08:56;;;;;;;10.05;5.40;;;;;;;;;;5093126;28;20494;-76
2023/04/05 09:11:22;;;;;;;8.93;6.25;;;;;;;;;;5082237;28;20051;-75
2023/04/05 09:13:48;;;;;;;10.25;6.80;;;;;;;;;;5080150;28;20040;-76
2023/04/05 09:16:14;;;;;;;7.57;5.80;;;;;;;;;;5090349;28;20059;-75
2023/04/05 09:18:42;;;;;;;11.77;6.35;;;;;;;;;;5085203;28;20101;-76
2023/04/05 09:21:09;;;;;;;10.80;6.68;;;;;;;;;;5074027;28;20048;-76
2023/04/05 09:23:36;;;;;;;11.88;6.60;;;;;;;;;;5073993;28;20044;-75
2023/04/05 09:26:17;;;;;;;9.25;6.60;;;;;;;;;;5085121;28;20127;-76
2023/04/05 09:28:43;;;;;;;12.82;7.65;;;;;;;;;;5093973;28;20044;-76
2023/04/05 09:31:09;;;;;;;10.98;7.38;;;;;;;;;;5082138;28;20218;-76
2023/04/05 09:33:38;;;;;;;10.93;7.05;;;;;;;;;;5073863;28;20071;-76
2023/04/05 09:36:04;;;;;;;11.00;6.22;;;;;;;;;;5074202;28;20037;-78
2023/04/05 09:38:43;;;;;;;12.30;7.35;;;;;;;;;;5088199;28;20040;-77
2023/04/05 09:41:10;;;;;;;10.43;7.30;;;;;;;;;;5073363;28;20036;-77
2023/04/05 09:43:39;;;;;;;9.98;7.35;;;;;;;;;;5074840;28;20082;-77
2023/04/05 09:46:05;;;;;;;9.43;7.13;;;;;;;;;;5072726;28;20044;-77
2023/04/05 09:48:47;;;;;;;13.18;8.40;;;;;;;;;;5074258;28;20040;-77
2023/04/05 09:51:18;;;;;;;11.82;7.68;;;;;;;;;;5083652;28;20123;-80
2023/04/05 09:53:58;;;;;;;10.10;6.93;;;;;;;;;;5091526;28;20040;-79
2023/04/05 09:56:25;;;;;;;10.68;7.82;;;;;;;;;;5094381;28;20044;-77
2023/04/05 09:58:51;;;;;;;10.65;7.20;;;;;;;;;;5089443;28;20119;-77
2023/04/05 10:01:19;;;;;;;10.27;7.65;;;;;;;;;;5093382;28;20051;-77
2023/04/05 10:03:46;;;;;;;8.70;6.88;;;;;;;;;;5093861;28;20040;-77
2023/04/05 10:06:12;;;;;;;8.88;6.82;;;;;;;;;;5093255;28;20135;-77
2023/04/05 10:08:38;;;;;;;9.30;7.18;;;;;;;;;;5093610;28;20051;-77
2023/04/05 10:11:05;;;;;;;10.10;6.95;;;;;;;;;;5093956;28;20080;-78
2023/04/05 10:13:31;;;;;;;9.30;7.53;;;;;;;;;;5087433;28;20047;-77
2023/04/05 10:15:59;;;;;;;10.68;7.22;;;;;;;;;;5076313;28;20056;-77
2023/04/05 10:18:29;;;;;;;11.43;7.63;;;;;;;;;;5074912;28;20075;-77
2023/04/05 10:20:57;;;;;;;10.77;7.80;;;;;;;;;;5094387;28;20094;-77
2023/04/05 10:23:28;;;;;;;9.25;6.95;;;;;;;;;;5093302;28;20490;-77
2023/04/05 10:26:00;;;;;;;9.25;7.05;;;;;;;;;;5093273;28;20105;-78
2023/04/05 10:28:26;;;;;;;8.85;7.45;;;;;;;;;;5090389;28;20690;-78
2023/04/05 10:30:57;;;;;;;9.77;7.03;;;;;;;;;;5084079;28;20048;-78
2023/04/05 10:33:34;;;;;;;10.18;6.68;;;;;;;;;;5096118;28;20126;-77
2023/04/05 10:36:07;;;;;;;8.48;6.53;;;;;;;;;;5074695;28;20045;-77
2023/04/05 10:38:44;;;;;;;9.27;7.38;;;;;;;;;;5073963;28;20075;-75
2023/04/05 10:41:16;;;;;;;11.20;7.10;;;;;;;;;;5090286;28;20048;-75
2023/04/05 10:43:42;;;;;;;10.90;7.13;;;;;;;;;;5088859;28;20044;-75
2023/04/05 10:46:10;;;;;;;9.82;7.10;;;;;;;;;;5085112;28;20040;-76
2023/04/05 10:48:36;;;;;;;10.43;7.10;;;;;;;;;;5076962;28;20044;-76
2023/04/05 10:51:03;;;;;;;10.18;7.55;;;;;;;;;;5085586;28;20040;-76
2023/04/05 10:53:31;;;;;;;8.65;6.85;;;;;;;;;;5073475;28;20044;-76
2023/04/05 10:55:58;;;;;;;9.38;7.00;;;;;;;;;;5088958;28;20052;-76
2023/04/05 10:58:25;;;;;;;9.20;6.68;;;;;;;;;;5075116;28;20551;-77
2023/04/05 11:00:51;;;;;;;11.02;6.72;;;;;;;;;;5076939;28;20074;-76
2023/04/05 11:03:36;;;;;;;7.90;5.97;;;;;;;;;;5081954;28;20382;-76
2023/04/05 11:06:21;;;;;;;9.70;6.45;;;;;;;;;;5084470;28;20040;-76
2023/04/05 11:08:47;;;;;;;9.07;6.30;;;;;;;;;;5076562;28;20040;-76
2023/04/05 11:11:16;;;;;;;7.72;6.10;;;;;;;;;;5075883;28;20048;-76
2023/04/05 11:13:48;;;;;;;8.63;6.22;;;;;;;;;;5085518;28;20039;-76
2023/04/05 11:16:15;;;;;;;9.00;6.95;;;;;;;;;;5090981;28;20045;-76
2023/04/05 11:18:47;;;;;;;9.73;7.03;;;;;;;;;;5075176;28;20430;-76
2023/04/05 11:21:23;;;;;;;8.65;6.95;;;;;;;;;;5076273;28;20047;-76
2023/04/05 11:23:59;;;;;;;9.45;7.10;;;;;;;;;;5086414;28;20048;-77
2023/04/05 11:26:30;;;;;;;7.60;6.50;;;;;;;;;;5090602;28;20040;-77
2023/04/05 11:28:59;;;;;;;10.60;6.38;;;;;;;;;;5096465;28;20101;-77
2023/04/05 11:31:25;;;;;;;8.70;6.22;;;;;;;;;;5075133;28;20045;-77
2023/04/05 11:33:58;;;;;;;8.98;6.63;;;;;;;;;;5080549;28;20040;-77
2023/04/05 11:36:40;;;;;;;7.18;6.22;;;;;;;;;;5088656;28;20052;-77
2023/04/05 11:39:24;;;;;;;10.40;6.72;;;;;;;;;;5077468;28;20045;-76
2023/04/05 11:41:55;;;;;;;7.82;5.88;;;;;;;;;;5075698;28;20044;-77
2023/04/05 11:44:23;;;;;;;7.93;5.75;;;;;;;;;;5076433;28;20084;-76
2023/04/05 11:46:49;;;;;;;8.15;6.60;;;;;;;;;;5080424;28;20048;-77
2023/04/05 11:49:15;;;;;;;7.75;6.57;;;;;;;;;;5074536;28;20123;-77
2023/04/05 11:51:42;;;;;;;9.05;6.70;;;;;;;;;;5075868;28;20518;-77
2023/04/05 11:54:10;;;;;;;9.80;6.75;;;;;;;;;;5075857;28;20033;-77
2023/04/05 11:56:37;;;;;;;10.45;6.40;;;;;;;;;;5081235;28;20040;-77
2023/04/05 11:59:03;;;;;;;8.18;6.70;;;;;;;;;;5075724;28;20036;-77
2023/04/05 12:01:29;;;;;;;9.50;7.13;;;;;;;;;;5075673;28;20051;-77
2023/04/05 12:03:55;;;;;;;9.85;6.45;;;;;;;;;;5075438;28;20388;-76
2023/04/05 12:06:22;;;;;;;7.70;6.15;;;;;;;;;;5091802;28;20048;-77
2023/04/05 12:08:49;;;;;;;7.10;5.85;;;;;;;;;;5093199;28;20474;-76
2023/04/05 12:11:16;;;;;;;8.20;6.65;;;;;;;;;;5094499;28;20097;-77
2023/04/05 12:13:42;;;;;;;9.02;6.88;;;;;;;;;;5088292;28;20044;-77
2023/04/05 12:16:08;;;;;;;9.55;6.97;;;;;;;;;;5090255;28;20047;-77
2023/04/05 12:18:35;;;;;;;8.93;6.53;;;;;;;;;;5095244;28;20040;-77
2023/04/05 12:21:02;;;;;;;8.98;6.55;;;;;;;;;;5084148;28;20048;-76
2023/04/05 12:23:28;;;;;;;8.45;5.90;;;;;;;;;;5077639;28;20048;-77
2023/04/05 12:25:55;;;;;;;9.52;6.65;;;;;;;;;;5057150;28;20049;-77
2023/04/05 12:28:22;;;;;;;9.13;6.30;;;;;;;;;;5078647;28;20048;-77
2023/04/05 12:30:52;;;;;;;7.63;6.20;;;;;;;;;;5084954;28;20047;-77
2023/04/05 12:33:27;;;;;;;8.52;6.28;;;;;;;;;;5084945;28;20701;-77
2023/04/05 12:35:53;;;;;;;9.02;6.40;;;;;;;;;;5093690;28;20059;-78
2023/04/05 12:38:19;;;;;;;9.13;5.85;;;;;;;;;;5075586;28;20063;-77
2023/04/05 12:40:45;;;;;;;7.85;5.90;;;;;;;;;;5091776;28;20047;-77
2023/04/05 12:43:18;;;;;;;7.70;6.28;;;;;;;;;;5093789;28;20123;-76
2023/04/05 12:45:44;;;;;;;7.38;6.22;;;;;;;;;;5087489;28;20048;-76
2023/04/05 12:48:14;;;;;;;8.48;6.45;;;;;;;;;;5077219;28;20419;-76
2023/04/05 12:50:45;;;;;;;8.82;6.93;;;;;;;;;;5085431;28;20058;-77
2023/04/05 12:53:19;;;;;;;7.53;5.80;;;;;;;;;;5093472;28;20111;-77
2023/04/05 12:55:49;;;;;;;8.35;6.40;;;;;;;;;;5088457;28;20044;-76
2023/04/05 12:58:16;;;;;;;6.57;5.57;;;;;;;;;;5074895;28;20074;-76
2023/04/05 13:00:43;;;;;;;7.88;5.78;;;;;;;;;;5085670;28;20036;-76
2023/04/05 13:03:15;;;;;;;7.35;6.30;;;;;;;;;;5074813;28;20048;-76
2023/04/05 13:05:41;;;;;;;7.90;6.10;;;;;;;;;;5079701;28;20036;-76
2023/04/05 13:08:07;;;;;;;7.55;6.15;;;;;;;;;;5076831;28;20421;-76
2023/04/05 13:10:33;;;;;;;9.70;6.20;;;;;;;;;;5088644;28;20406;-76
2023/04/05 13:12:59;;;;;;;7.60;5.63;;;;;;;;;;5083759;28;20494;-76
2023/04/05 13:15:26;;;;;;;7.45;6.20;;;;;;;;;;5084454;28;20044;-77
2023/04/05 13:17:53;;;;;;;10.02;6.55;;;;;;;;;;5085664;28;20040;-76
2023/04/05 13:20:20;;;;;;;9.65;6.32;;;;;;;;;;5094602;28;20043;-77
2023/04/05 13:22:46;;;;;;;7.93;5.70;;;;;;;;;;5095519;28;20044;-77
2023/04/05 13:25:15;;;;;;;10.63;6.10;;;;;;;;;;5081990;28;20040;-77
2023/04/05 13:27:41;;;;;;;8.88;6.30;;;;;;;;;;5094650;28;20052;-77
2023/04/05 13:30:08;;;;;;;7.95;5.90;;;;;;;;;;5094362;28;20044;-77
2023/04/05 13:32:34;;;;;;;9.15;6.00;;;;;;;;;;5094248;28;20448;-77
2023/04/05 13:35:00;;;;;;;8.18;5.78;;;;;;;;;;5085622;28;20852;-77
2023/04/05 13:37:26;;;;;;;10.25;5.88;;;;;;;;;;5088317;28;20041;-76
2023/04/05 13:39:52;;;;;;;8.77;6.13;;;;;;;;;;5073596;28;20479;-76
2023/04/05 13:42:18;;;;;;;9.07;6.03;;;;;;;;;;5073807;28;20055;-77
2023/04/05 13:44:44;;;;;;;8.65;6.00;;;;;;;;;;5073957;28;20510;-76
2023/04/05 13:47:10;;;;;;;7.30;6.32;;;;;;;;;;5074245;28;20056;-77
2023/04/05 13:49:36;;;;;;;8.60;5.78;;;;;;;;;;5072098;28;20070;-77
2023/04/05 13:52:02;;;;;;;8.30;5.70;;;;;;;;;;5075209;28;20132;-77
2023/04/05 13:54:28;;;;;;;8.07;5.72;;;;;;;;;;5075562;28;20037;-77
2023/04/05 13:56:55;;;;;;;6.90;5.80;;;;;;;;;;5073744;28;20390;-77
2023/04/05 13:59:22;;;;;;;7.45;5.90;;;;;;;;;;5081001;28;20055;-80
2023/04/05 14:01:48;;;;;;;9.25;5.65;;;;;;;;;;5094299;28;20537;-77
2023/04/05 14:04:15;;;;;;;9.00;5.65;;;;;;;;;;5079847;28;20406;-77
2023/04/05 14:06:41;;;;;;;7.65;5.00;;;;;;;;;;5078168;28;20044;-77
2023/04/05 14:09:07;;;;;;;11.52;7.22;;;;;;;;;;5094015;28;20043;-78
2023/04/05 14:11:34;;;;;;;11.38;7.65;;;;;;;;;;5084070;28;20040;-76
2023/04/05 14:14:00;;;;;;;10.65;7.60;;;;;;;;;;5075159;28;20048;-76
2023/04/05 14:16:26;;;;;;;12.30;8.43;;;;;;;;;;5076610;28;20053;-76
2023/04/05 14:18:52;;;;;;;9.82;6.28;;;;;;;;;;5076170;28;20054;-77
2023/04/05 14:21:19;;;;;;;8.98;6.30;;;;;;;;;;5078785;28;20047;-76
2023/04/05 14:23:46;;;;;;;7.15;5.72;;;;;;;;;;5086454;28;20051;-76
2023/04/05 14:26:12;;;;;;;6.97;5.85;;;;;;;;;;5074356;28;20032;-76
2023/04/05 14:28:38;;;;;;;7.50;5.72;;;;;;;;;;5086405;28;20171;-76
2023/04/05 14:31:04;;;;;;;7.38;5.85;;;;;;;;;;5089374;28;20068;-77
2023/04/05 14:33:30;;;;;;;7.53;6.18;;;;;;;;;;5088622;28;20056;-77
2023/04/05 14:35:56;;;;;;;8.13;6.72;;;;;;;;;;5091796;28;20086;-77
2023/04/05 14:38:22;;;;;;;8.02;6.45;;;;;;;;;;5080511;28;20035;-77